Green Mountain Falls, Colorado
Current Conditions -  °F | °C
As of 11:48 AM on Wednesday 26 Nov 2014 (Local Time) from KAFF Reporting Station
Broken Clouds Broken Clouds  
Wind Chill: 32°   Ceiling: 1500
Heat Index: 32°   Visibility: 10mi
Dew Point: 23°   Wind: 2mph
Humidity: 69%   Direction: NA
Pressure: 30.18"   Gusts: NA
Location:  38.93°N, 105.02°W
Report Text: KAFF 261848Z AUTO VRB02KT 10SM BKN015 00/M05 A3018 RMK AO2
Loading
Personal Weather Stations






























Interactive Weather Map New forecast layout! Learn more

10-Day Weather Forecast

Advertisements
Track Severe Weather on mobile